OICI  Ilam  Airport

Ilam, Iran

Add Bookmark
ICAO OICI
IATA IIL
Type Airport
Status Operational
Latitude
33° 35' 11" N
33.586601
Longitude
46° 24' 17" E
46.404800
Local (DST + 5) UTC (GMT + 4)
Jul 31, 2015 09:55 Jul 31, 2015 17:25
Sunrise-Sunset Local UTC
Begin Civil Twilight 06:07 01:37
Sunrise 06:34 02:04
Sunset 08:26 15:56
End Civil Twilight 08:54 16:24
VFR
VFR
MVFR
MVFR
IFR
IFR
LIFR
LIFR
Unknown
Unavailable

Current Weather

METAR Observed VFR
OICI 311700Z 31004KT 9999 SCT040 BKN090 31/08 Q1012 A2991 Fri, Jul 31, 2015 @ 17:00 UTC
(25 Minutes ago)
Visual Flight Rules
Wind Visibility Clouds Conditions
310° at 4 knots (7 kph) 10 km or more
  • Scattered at 4,000 ft AGL
  • Broken at 9,000 ft AGL
  • No significant weather
Temperatures Readings Precipitation
Current Temp
31°C
88°F
Dewpoint
8°C
46°F
Humidity 24%
Altimeter 29.88" Hg
Sea Level Pressure 1,012 mb
Field Elevation
1,343 m
4,406 ft
None Recorded
-
-

CheckWX.com is intended as a tool to help pilots better visualize weather data. It is not intended as a substitute for an official weather briefing obtained from a Flight Service Station. CheckWX.com does not meet the FAA requirements for an official pre-flight weather briefing. Therefore, it's important that pilots still call and obtain an official FSS pre-flight weather briefing.

© 2007-2015 CheckWX.com
17:25:46 UTC